Aliceville, Alabama
Current Conditions -  °F | °C
As of 12:53 AM on Thursday 18 Dec 2014 (Local Time) from KTCL Reporting Station
Clear Clear  
Wind Chill:   Ceiling: Unl
Heat Index:   Visibility: 9mi
Dew Point:   Wind: 3mph
Humidity: 93%   Direction: 10°N
Pressure: 30.21"   Gusts: NA
Location:  33.13°N, 88.15°W
Report Text: KTCL 180653Z AUTO 01003KT 9SM CLR 02/01 A3021 RMK AO2 SLP229 T00220011
Loading
Personal Weather Stations






























Interactive Weather Map New forecast layout! Learn more

10-Day Weather Forecast

Advertisements
Track Severe Weather on mobile